Time;durP1;ratioP1;P1;durP2;ratioP2;P2;SDS_P1;SDS_P2;PMS_P1;PMS_P2;Temp;Humidity;BMP_temperature;BMP_pressure;BME280_temperature;BME280_humidity;BME280_pressure;Samples;Min_cycle;Max_cycle;Signal;HPM_P1;HPM_P2
2021/05/05 00:01:53;;;;;;;3.60;2.37;;;7.80;98.30;;;;;;5073876;23;20424;-84
2021/05/05 00:03:55;;;;;;;7.40;2.60;;;7.80;98.30;;;;;;5073082;23;20662;-83
2021/05/05 00:05:58;;;;;;;3.77;2.40;;;7.90;98.30;;;;;;5075143;23;20448;-85
2021/05/05 00:08:00;;;;;;;3.53;2.43;;;7.90;98.30;;;;;;5074782;23;20427;-85
2021/05/05 00:10:03;;;;;;;3.03;2.60;;;7.90;98.30;;;;;;5074491;23;20462;-83
2021/05/05 00:12:06;;;;;;;7.63;2.90;;;7.90;98.30;;;;;;5065893;23;20459;-83
2021/05/05 00:14:09;;;;;;;8.60;2.70;;;7.90;98.30;;;;;;5073714;23;20989;-83
2021/05/05 00:16:12;;;;;;;5.40;3.20;;;7.90;98.30;;;;;;5075219;23;20447;-83
2021/05/05 00:18:14;;;;;;;6.63;2.20;;;7.90;98.30;;;;;;5065985;23;20438;-83
2021/05/05 00:20:20;;;;;;;2.17;1.80;;;7.90;98.30;;;;;;5065746;23;20510;-85
2021/05/05 00:22:22;;;;;;;10.13;3.43;;;7.90;98.30;;;;;;5072627;23;20763;-84
2021/05/05 00:24:24;;;;;;;6.60;2.83;;;7.90;98.30;;;;;;5074947;23;20538;-83
2021/05/05 00:26:26;;;;;;;5.60;2.33;;;7.90;98.30;;;;;;5076415;23;20456;-83
2021/05/05 00:28:28;;;;;;;3.40;2.50;;;7.90;98.30;;;;;;5074328;23;20517;-85
2021/05/05 00:30:33;;;;;;;3.50;1.90;;;7.90;98.30;;;;;;5065400;23;20456;-85
2021/05/05 00:32:36;;;;;;;5.90;2.07;;;7.80;98.30;;;;;;5065966;23;20452;-84
2021/05/05 00:34:38;;;;;;;3.30;2.30;;;7.80;98.30;;;;;;5065715;23;20495;-83
2021/05/05 00:36:40;;;;;;;5.30;2.37;;;7.80;98.30;;;;;;5068654;23;20455;-82
2021/05/05 00:38:44;;;;;;;2.00;1.73;;;7.80;98.30;;;;;;5067815;23;20438;-83
2021/05/05 00:40:46;;;;;;;2.60;1.67;;;7.80;98.30;;;;;;5076482;23;20455;-83
2021/05/05 00:42:48;;;;;;;2.90;1.90;;;7.80;98.30;;;;;;5074574;23;20430;-84
2021/05/05 00:44:55;;;;;;;3.70;2.10;;;7.70;98.30;;;;;;5065913;23;20948;-83
2021/05/05 00:46:57;;;;;;;4.37;2.63;;;7.70;98.30;;;;;;5074763;23;20511;-84
2021/05/05 00:49:00;;;;;;;2.80;2.50;;;7.70;98.30;;;;;;5073090;23;20448;-84
2021/05/05 00:51:05;;;;;;;3.67;2.40;;;7.80;98.30;;;;;;5074350;23;20451;-83
2021/05/05 00:53:07;;;;;;;5.27;2.80;;;7.80;98.30;;;;;;5075195;23;20463;-85
2021/05/05 00:55:10;;;;;;;3.13;2.40;;;7.80;98.30;;;;;;5075179;23;20429;-83
2021/05/05 00:57:13;;;;;;;3.10;2.37;;;7.70;98.30;;;;;;5069078;23;21287;-83
2021/05/05 00:59:15;;;;;;;5.50;2.50;;;7.80;98.30;;;;;;5068926;23;20466;-84
2021/05/05 01:01:17;;;;;;;4.60;2.20;;;7.70;98.30;;;;;;5067676;23;20460;-83
2021/05/05 01:03:21;;;;;;;4.20;2.03;;;7.80;98.30;;;;;;5076252;23;21096;-83
2021/05/05 01:05:24;;;;;;;4.53;2.27;;;7.70;98.30;;;;;;5076636;23;20430;-83
2021/05/05 01:07:26;;;;;;;5.10;2.40;;;7.70;98.30;;;;;;5077952;23;20471;-84
2021/05/05 01:09:28;;;;;;;3.40;3.10;;;7.70;98.30;;;;;;5076759;23;20447;-84
2021/05/05 01:11:31;;;;;;;3.27;2.30;;;7.70;98.30;;;;;;5067289;23;20821;-83
2021/05/05 01:13:33;;;;;;;3.30;1.80;;;7.70;98.30;;;;;;5074217;23;20456;-83
2021/05/05 01:15:35;;;;;;;2.70;1.83;;;7.70;98.30;;;;;;5072185;23;20457;-83
2021/05/05 01:17:36;;;;;;;3.73;2.07;;;7.70;98.30;;;;;;5073397;23;20487;-83
2021/05/05 01:19:38;;;;;;;2.73;1.90;;;7.70;98.30;;;;;;5074527;23;20510;-83
2021/05/05 01:21:41;;;;;;;5.17;2.90;;;7.70;98.30;;;;;;5066521;23;20974;-83
2021/05/05 01:23:43;;;;;;;5.40;2.40;;;7.70;98.30;;;;;;5065882;23;20438;-83
2021/05/05 01:25:45;;;;;;;4.10;2.60;;;7.60;98.30;;;;;;5076321;23;20768;-82
2021/05/05 01:27:47;;;;;;;7.93;2.30;;;7.70;98.30;;;;;;5069381;23;20993;-83
2021/05/05 01:29:49;;;;;;;3.03;2.07;;;7.70;98.30;;;;;;5075456;23;20448;-84
2021/05/05 01:31:51;;;;;;;6.23;2.27;;;7.70;98.30;;;;;;5074849;23;20906;-85
2021/05/05 01:33:54;;;;;;;4.07;2.60;;;7.70;98.30;;;;;;5076194;23;20458;-83
2021/05/05 01:35:55;;;;;;;4.40;2.57;;;7.70;98.30;;;;;;5067655;23;20455;-82
2021/05/05 01:37:58;;;;;;;7.57;2.57;;;7.70;98.30;;;;;;5073207;23;20442;-82
2021/05/05 01:40:03;;;;;;;4.00;2.60;;;7.70;98.30;;;;;;5073552;23;20491;-82
2021/05/05 01:42:05;;;;;;;2.90;2.37;;;7.70;98.30;;;;;;5065805;23;20459;-82
2021/05/05 01:44:08;;;;;;;5.70;3.30;;;7.70;98.30;;;;;;5065886;23;20949;-82
2021/05/05 01:46:11;;;;;;;3.80;2.20;;;7.70;98.30;;;;;;5066149;23;21004;-82
2021/05/05 01:48:15;;;;;;;2.47;2.20;;;7.70;98.30;;;;;;5072519;23;20861;-82
2021/05/05 01:50:17;;;;;;;3.20;2.27;;;7.70;98.30;;;;;;5073191;23;20463;-83
2021/05/05 01:52:20;;;;;;;4.13;2.43;;;7.70;98.30;;;;;;5065618;23;20431;-83
2021/05/05 01:54:24;;;;;;;4.63;2.23;;;7.70;98.30;;;;;;5073925;23;20485;-83
2021/05/05 01:56:26;;;;;;;3.93;2.00;;;7.70;98.30;;;;;;5074048;23;20430;-82
2021/05/05 01:58:28;;;;;;;4.97;2.47;;;7.70;98.30;;;;;;5074125;23;20458;-82
2021/05/05 02:00:31;;;;;;;2.17;1.97;;;7.70;98.30;;;;;;5074381;23;20501;-82
2021/05/05 02:02:33;;;;;;;4.50;2.40;;;7.70;98.30;;;;;;5074722;23;20430;-82
2021/05/05 02:04:35;;;;;;;3.70;2.23;;;7.70;98.30;;;;;;5065612;23;20859;-83
2021/05/05 02:06:37;;;;;;;4.20;2.60;;;7.70;98.30;;;;;;5074860;23;20509;-82
2021/05/05 02:08:39;;;;;;;4.70;2.17;;;7.70;98.30;;;;;;5066766;23;21017;-82
2021/05/05 02:10:42;;;;;;;3.20;1.80;;;7.70;98.30;;;;;;5067277;23;20462;-83
2021/05/05 02:12:45;;;;;;;3.80;2.07;;;7.60;98.30;;;;;;5068992;23;20485;-83
2021/05/05 02:14:47;;;;;;;3.63;2.27;;;7.60;98.30;;;;;;5077261;23;20448;-83
2021/05/05 02:16:54;;;;;;;3.13;1.97;;;7.60;98.30;;;;;;5078915;23;20448;-83
2021/05/05 02:18:56;;;;;;;3.20;2.23;;;7.60;98.30;;;;;;5069148;23;20811;-84
2021/05/05 02:20:58;;;;;;;7.93;1.83;;;7.60;98.30;;;;;;5076565;23;20551;-83
2021/05/05 02:23:00;;;;;;;2.77;1.73;;;7.60;98.30;;;;;;5076735;23;20936;-83
2021/05/05 02:25:02;;;;;;;2.63;2.33;;;7.60;98.30;;;;;;5069010;23;20492;-83
2021/05/05 02:27:06;;;;;;;4.90;1.80;;;7.50;98.30;;;;;;5070337;23;20781;-83
2021/05/05 02:29:08;;;;;;;4.63;1.97;;;7.50;98.30;;;;;;5069668;23;20462;-84
2021/05/05 02:31:10;;;;;;;13.53;2.90;;;7.50;98.30;;;;;;5077179;23;20455;-84
2021/05/05 02:33:12;;;;;;;3.77;2.40;;;7.50;98.30;;;;;;5077743;23;20457;-84
2021/05/05 02:35:14;;;;;;;3.23;1.77;;;7.50;98.30;;;;;;5070444;23;20462;-83
2021/05/05 02:37:17;;;;;;;3.10;2.07;;;7.50;98.30;;;;;;5079974;23;20480;-84
2021/05/05 02:39:21;;;;;;;5.30;2.40;;;7.50;98.30;;;;;;5078645;23;20485;-83
2021/05/05 02:41:23;;;;;;;4.43;2.97;;;7.40;98.30;;;;;;5078765;23;20503;-84
2021/05/05 02:43:34;;;;;;;4.60;1.93;;;7.50;98.30;;;;;;5075674;23;20466;-84
2021/05/05 02:45:35;;;;;;;2.97;2.03;;;7.50;98.30;;;;;;5077279;23;20454;-84
2021/05/05 02:47:37;;;;;;;3.00;2.07;;;7.50;98.30;;;;;;5078233;23;20451;-84
2021/05/05 02:49:39;;;;;;;3.90;2.70;;;7.50;98.30;;;;;;5075419;23;20774;-83
2021/05/05 02:51:41;;;;;;;8.43;2.60;;;7.50;98.30;;;;;;5073678;23;20482;-83
2021/05/05 02:53:43;;;;;;;2.27;1.90;;;7.50;98.30;;;;;;5074031;23;20452;-84
2021/05/05 02:55:45;;;;;;;6.43;3.07;;;7.40;98.30;;;;;;5075417;23;20448;-84
2021/05/05 02:57:47;;;;;;;4.77;2.20;;;7.40;98.30;;;;;;5074903;23;20455;-83
2021/05/05 02:59:50;;;;;;;4.87;2.00;;;7.40;98.30;;;;;;5073824;23;20987;-83
2021/05/05 03:02:19;;;;;;;2.57;1.83;;;7.30;98.30;;;;;;5067648;23;20880;-83
2021/05/05 03:04:24;;;;;;;4.23;2.03;;;7.30;98.30;;;;;;5074242;23;20475;-84
2021/05/05 03:06:27;;;;;;;3.83;2.63;;;7.30;98.30;;;;;;5076676;23;20523;-83
2021/05/05 03:08:29;;;;;;;3.03;2.20;;;7.30;98.30;;;;;;5076322;23;20968;-83
2021/05/05 03:10:31;;;;;;;5.63;2.20;;;7.30;98.30;;;;;;5076685;23;20482;-80
2021/05/05 03:12:33;;;;;;;2.80;1.80;;;7.20;98.30;;;;;;5075923;23;20448;-81
2021/05/05 03:14:35;;;;;;;2.67;2.00;;;7.20;98.30;;;;;;5074946;23;20547;-80
2021/05/05 03:16:38;;;;;;;5.43;2.93;;;7.20;98.30;;;;;;5067660;23;20463;-80
2021/05/05 03:18:40;;;;;;;2.53;2.33;;;7.10;98.30;;;;;;5074622;23;20462;-80
2021/05/05 03:20:42;;;;;;;6.30;3.03;;;7.20;98.30;;;;;;5075513;23;20458;-81
2021/05/05 03:22:44;;;;;;;3.87;2.73;;;7.20;98.30;;;;;;5074905;23;20452;-81
2021/05/05 03:24:46;;;;;;;2.33;1.83;;;7.20;98.30;;;;;;5076273;23;20484;-82
2021/05/05 03:26:48;;;;;;;9.60;2.83;;;7.20;98.30;;;;;;5078278;23;20558;-81
2021/05/05 03:28:50;;;;;;;3.80;2.20;;;7.20;98.30;;;;;;5077986;23;20454;-83
2021/05/05 03:30:52;;;;;;;4.97;2.47;;;7.10;98.30;;;;;;5077640;23;20447;-81
2021/05/05 03:32:55;;;;;;;4.87;3.03;;;7.10;98.30;;;;;;5077102;23;20462;-84
2021/05/05 03:34:57;;;;;;;4.37;2.60;;;7.10;98.30;;;;;;5076605;23;20787;-81
2021/05/05 03:36:59;;;;;;;4.40;2.40;;;7.00;98.30;;;;;;5077560;23;20455;-81
2021/05/05 03:39:01;;;;;;;9.70;3.20;;;6.90;98.30;;;;;;5077649;23;20455;-81
2021/05/05 03:41:03;;;;;;;5.60;2.80;;;7.00;98.30;;;;;;5068225;23;20859;-81
2021/05/05 03:43:05;;;;;;;6.13;2.60;;;7.00;98.30;;;;;;5076586;23;20850;-81
2021/05/05 03:45:08;;;;;;;5.20;2.50;;;7.10;98.30;;;;;;5077505;23;20929;-80
2021/05/05 03:47:10;;;;;;;6.13;2.03;;;7.00;98.30;;;;;;5076733;23;20452;-81
2021/05/05 03:49:14;;;;;;;4.00;2.60;;;7.00;98.30;;;;;;5075574;23;20450;-81
2021/05/05 03:51:17;;;;;;;7.57;3.07;;;7.00;98.30;;;;;;5068448;23;20468;-81
2021/05/05 03:53:19;;;;;;;4.13;2.90;;;7.00;98.30;;;;;;5076715;23;20794;-80
2021/05/05 03:55:21;;;;;;;3.93;2.67;;;7.00;98.30;;;;;;5069432;23;20460;-80
2021/05/05 03:57:23;;;;;;;5.07;2.80;;;7.00;98.30;;;;;;5078206;23;20452;-81
2021/05/05 03:59:25;;;;;;;2.40;2.17;;;6.90;98.30;;;;;;5068816;23;20545;-80
2021/05/05 04:01:27;;;;;;;5.30;2.80;;;6.90;98.30;;;;;;5068986;23;20944;-81
2021/05/05 04:03:29;;;;;;;3.50;2.57;;;6.80;98.30;;;;;;5068559;23;20464;-81
2021/05/05 04:05:32;;;;;;;4.17;2.57;;;6.80;98.30;;;;;;5069210;23;20540;-81
2021/05/05 04:07:34;;;;;;;4.70;2.70;;;6.80;98.30;;;;;;5078827;23;21308;-80
2021/05/05 04:09:36;;;;;;;6.00;2.93;;;6.70;98.30;;;;;;5077785;23;20546;-81
2021/05/05 04:11:38;;;;;;;3.57;2.40;;;6.60;98.30;;;;;;5067616;23;20462;-81
2021/05/05 04:13:40;;;;;;;4.70;2.57;;;6.60;98.30;;;;;;5076909;23;20506;-81
2021/05/05 04:16:00;;;;;;;4.83;1.93;;;6.60;98.30;;;;;;5068321;23;20451;-81
2021/05/05 04:18:20;;;;;;;10.03;3.10;;;6.60;98.30;;;;;;5068496;23;20450;-81
2021/05/05 04:20:42;;;;;;;6.37;2.50;;;6.60;98.30;;;;;;5068726;23;20477;-81
2021/05/05 04:23:02;;;;;;;3.90;2.67;;;6.70;98.30;;;;;;5068090;23;20446;-81
2021/05/05 04:25:22;;;;;;;6.53;2.43;;;6.60;98.30;;;;;;5069703;23;20457;-81
2021/05/05 04:27:24;;;;;;;4.60;2.70;;;6.60;98.30;;;;;;5078295;23;20473;-81
2021/05/05 04:29:26;;;;;;;12.07;3.10;;;6.60;98.30;;;;;;5069736;23;20463;-81
2021/05/05 04:31:30;;;;;;;4.40;3.10;;;6.60;98.30;;;;;;5076388;23;20782;-81
2021/05/05 04:33:32;;;;;;;7.17;3.30;;;6.60;98.30;;;;;;5066570;23;20469;-81
2021/05/05 04:35:33;;;;;;;3.50;3.20;;;6.60;98.30;;;;;;5075745;23;20465;-81
2021/05/05 04:37:36;;;;;;;6.37;3.30;;;6.60;98.30;;;;;;5074526;23;20450;-81
2021/05/05 04:39:38;;;;;;;4.47;2.57;;;6.60;98.30;;;;;;5065492;23;20847;-81
2021/05/05 04:41:40;;;;;;;5.63;3.43;;;6.60;98.30;;;;;;5075399;23;20537;-81
2021/05/05 04:43:47;;;;;;;7.40;3.07;;;6.60;98.30;;;;;;5075298;23;20455;-80
2021/05/05 04:45:56;;;;;;;4.60;2.87;;;6.60;98.30;;;;;;5075885;23;20455;-80
2021/05/05 04:47:59;;;;;;;4.37;2.97;;;6.60;98.30;;;;;;5075929;23;20519;-81
2021/05/05 04:50:01;;;;;;;4.87;2.93;;;6.70;98.30;;;;;;5075886;23;20474;-81
2021/05/05 04:52:04;;;;;;;9.10;3.00;;;6.70;98.30;;;;;;5077264;23;20542;-80
2021/05/05 04:54:09;;;;;;;5.70;2.67;;;6.70;98.30;;;;;;5077101;23;20504;-80
2021/05/05 04:56:11;;;;;;;4.53;2.80;;;6.80;98.30;;;;;;5069786;23;20494;-81
2021/05/05 04:58:13;;;;;;;2.60;2.20;;;6.80;98.30;;;;;;5076619;23;20470;-80
2021/05/05 05:00:16;;;;;;;6.40;3.30;;;6.80;98.30;;;;;;5076986;23;20466;-80
2021/05/05 05:02:18;;;;;;;3.20;2.00;;;6.80;98.30;;;;;;5078424;23;20462;-80
2021/05/05 05:04:20;;;;;;;4.80;2.37;;;6.90;98.30;;;;;;5070571;23;20470;-81
2021/05/05 05:06:22;;;;;;;4.63;2.60;;;6.80;98.30;;;;;;5079171;23;20491;-81
2021/05/05 05:08:27;;;;;;;4.03;2.37;;;6.90;98.30;;;;;;5078831;23;20447;-81
2021/05/05 05:10:38;;;;;;;5.20;3.30;;;6.90;98.30;;;;;;5048372;23;20460;-81
2021/05/05 05:12:39;;;;;;;8.20;2.50;;;6.90;98.30;;;;;;5070008;23;20470;-81
2021/05/05 05:17:50;;;;;;;4.53;2.83;;;6.90;98.30;;;;;;5016648;23;20481;-81
2021/05/05 05:19:52;;;;;;;3.93;2.33;;;6.90;98.30;;;;;;5062881;23;20559;-81
2021/05/05 05:21:54;;;;;;;6.23;3.00;;;6.90;98.30;;;;;;5069214;23;20462;-81
2021/05/05 05:23:56;;;;;;;7.80;3.73;;;7.00;98.30;;;;;;5069623;23;20433;-81
2021/05/05 05:25:59;;;;;;;5.40;2.87;;;6.90;98.30;;;;;;5076836;23;20963;-80
2021/05/05 05:28:01;;;;;;;5.63;2.63;;;6.80;98.30;;;;;;5070652;23;20466;-81
2021/05/05 05:30:05;;;;;;;6.93;2.70;;;6.80;98.30;;;;;;5068991;23;20546;-80
2021/05/05 05:32:07;;;;;;;3.80;2.27;;;6.80;98.30;;;;;;5068203;23;20793;-80
2021/05/05 05:34:09;;;;;;;5.10;3.00;;;6.90;98.30;;;;;;5069401;23;20482;-80
2021/05/05 05:36:11;;;;;;;5.17;3.10;;;6.90;98.30;;;;;;5071008;23;20455;-79
2021/05/05 05:38:13;;;;;;;9.70;3.50;;;6.90;98.30;;;;;;5078726;23;20466;-80
2021/05/05 05:43:03;;;;;;;6.00;2.33;;;6.90;98.30;;;;;;5032405;23;20803;-81
2021/05/05 05:45:06;;;;;;;12.17;3.27;;;7.00;98.30;;;;;;5069825;23;20498;-81
2021/05/05 05:47:14;;;;;;;7.80;3.53;;;7.00;98.30;;;;;;5077665;23;20474;-81
2021/05/05 05:49:17;;;;;;;8.97;3.03;;;7.10;98.30;;;;;;5077250;23;20460;-81
2021/05/05 05:51:18;;;;;;;2.40;2.07;;;7.00;98.30;;;;;;5070689;23;20859;-81
2021/05/05 05:53:20;;;;;;;4.33;2.77;;;7.00;98.30;;;;;;5069410;23;21156;-81
2021/05/05 05:55:25;;;;;;;3.90;2.30;;;7.00;98.30;;;;;;5076965;23;20455;-80
2021/05/05 05:57:27;;;;;;;4.77;2.60;;;7.00;98.30;;;;;;5069180;23;20540;-80
2021/05/05 05:59:32;;;;;;;3.93;2.47;;;7.00;98.30;;;;;;5069416;23;20464;-80
2021/05/05 06:01:37;;;;;;;5.40;3.33;;;7.00;98.30;;;;;;5070060;23;20462;-81
2021/05/05 06:03:40;;;;;;;2.90;2.30;;;7.00;98.30;;;;;;5077082;23;20825;-81
2021/05/05 06:05:42;;;;;;;5.60;3.10;;;7.00;98.30;;;;;;5069717;23;20459;-80
2021/05/05 06:07:44;;;;;;;9.87;3.57;;;6.90;98.30;;;;;;5079030;23;20467;-80
2021/05/05 06:09:46;;;;;;;4.63;2.67;;;6.80;98.30;;;;;;5079403;23;21057;-82
2021/05/05 06:11:48;;;;;;;7.23;2.57;;;6.80;98.30;;;;;;5079048;23;20455;-81
2021/05/05 06:13:50;;;;;;;7.70;3.83;;;6.70;98.30;;;;;;5078648;23;21036;-80
2021/05/05 06:15:52;;;;;;;7.33;4.37;;;6.70;98.30;;;;;;5079877;23;20455;-80
2021/05/05 06:17:54;;;;;;;8.10;2.97;;;6.70;98.30;;;;;;5071452;23;20544;-80
2021/05/05 06:19:57;;;;;;;3.63;2.30;;;6.60;98.30;;;;;;5071584;23;20465;-80
2021/05/05 06:21:59;;;;;;;6.80;2.93;;;6.50;98.30;;;;;;5078687;23;20470;-81
2021/05/05 06:24:01;;;;;;;8.17;4.10;;;6.50;98.30;;;;;;5071463;23;20843;-81
2021/05/05 06:26:03;;;;;;;4.63;3.20;;;6.50;98.30;;;;;;5067045;23;20581;-81
2021/05/05 06:28:05;;;;;;;5.33;3.43;;;6.40;98.30;;;;;;5079573;23;20896;-81
2021/05/05 06:30:09;;;;;;;6.30;3.30;;;6.40;98.30;;;;;;5071600;23;20508;-80
2021/05/05 06:32:11;;;;;;;5.90;3.73;;;6.50;98.30;;;;;;5072338;23;20469;-81
2021/05/05 06:34:14;;;;;;;6.73;3.47;;;6.40;98.30;;;;;;5071800;23;20842;-81
2021/05/05 06:36:16;;;;;;;11.13;3.90;;;6.40;98.30;;;;;;5079268;23;20450;-81
2021/05/05 06:38:18;;;;;;;4.27;2.90;;;6.50;98.30;;;;;;5070604;23;20469;-81
2021/05/05 06:40:20;;;;;;;5.03;2.97;;;6.40;98.30;;;;;;5071643;23;20466;-81
2021/05/05 06:42:22;;;;;;;5.60;3.27;;;6.50;98.30;;;;;;5079237;23;20464;-82
2021/05/05 06:44:24;;;;;;;8.67;2.60;;;6.50;98.30;;;;;;5078937;23;20475;-81
2021/05/05 06:46:29;;;;;;;4.23;2.73;;;6.50;98.30;;;;;;5066841;23;20779;-81
2021/05/05 06:48:32;;;;;;;5.90;2.73;;;6.50;98.30;;;;;;5066170;23;20485;-80
2021/05/05 06:50:34;;;;;;;5.93;2.87;;;6.50;98.30;;;;;;5073354;23;20456;-81
2021/05/05 06:52:36;;;;;;;7.00;3.30;;;6.50;98.30;;;;;;5074917;23;20537;-81
2021/05/05 06:54:38;;;;;;;3.00;2.70;;;6.50;98.30;;;;;;5066392;23;20469;-81
2021/05/05 06:56:40;;;;;;;4.00;2.67;;;6.40;98.30;;;;;;5074065;23;20952;-82
2021/05/05 06:58:42;;;;;;;5.13;3.20;;;6.40;98.30;;;;;;5073575;23;20456;-83
2021/05/05 07:00:50;;;;;;;3.57;2.60;;;6.30;98.30;;;;;;5073541;23;20686;-83
2021/05/05 07:02:52;;;;;;;4.97;3.73;;;6.30;98.30;;;;;;5057094;23;21084;-82
2021/05/05 07:04:55;;;;;;;6.80;2.70;;;6.30;98.30;;;;;;5063529;23;20451;-81
2021/05/05 07:07:00;;;;;;;3.57;2.30;;;6.30;98.30;;;;;;5071509;23;20822;-81
2021/05/05 07:09:19;;;;;;;5.03;3.60;;;6.30;98.30;;;;;;5072242;23;20456;-82
2021/05/05 07:11:21;;;;;;;9.10;4.07;;;6.30;98.30;;;;;;5065101;23;20493;-82
2021/05/05 07:13:23;;;;;;;6.50;3.10;;;6.20;98.30;;;;;;5073017;23;20929;-82
2021/05/05 07:15:24;;;;;;;4.47;2.73;;;6.20;98.30;;;;;;5073138;23;20544;-82
2021/05/05 07:17:26;;;;;;;7.77;2.90;;;6.10;98.30;;;;;;5065349;23;20460;-83
2021/05/05 07:19:28;;;;;;;8.03;3.63;;;6.10;98.30;;;;;;5073069;23;20460;-84
2021/05/05 07:21:32;;;;;;;6.73;3.00;;;6.10;98.30;;;;;;5072642;23;20463;-81
2021/05/05 07:23:34;;;;;;;4.73;3.23;;;6.10;98.30;;;;;;5072301;23;20461;-82
2021/05/05 07:25:36;;;;;;;5.30;2.90;;;6.00;98.30;;;;;;5072077;23;20489;-83
2021/05/05 07:27:43;;;;;;;7.40;3.27;;;6.00;98.30;;;;;;5072347;23;20454;-82
2021/05/05 07:29:51;;;;;;;9.77;3.90;;;6.00;98.30;;;;;;5071891;23;21314;-84
2021/05/05 07:31:52;;;;;;;5.27;3.27;;;6.00;98.30;;;;;;5063954;23;20536;-81
2021/05/05 07:33:56;;;;;;;3.97;3.40;;;6.00;98.30;;;;;;5063750;23;20760;-83
2021/05/05 07:35:59;;;;;;;5.00;3.03;;;6.00;98.30;;;;;;5072579;23;20993;-81
2021/05/05 07:45:57;;;;;;;5.47;3.30;;;6.00;98.30;;;;;;5064336;23;20783;-82
2021/05/05 07:48:04;;;;;;;10.80;4.60;;;6.00;98.30;;;;;;5065539;23;20460;-81
2021/05/05 07:50:09;;;;;;;5.20;3.37;;;6.00;98.30;;;;;;5064921;23;20452;-82
2021/05/05 07:52:11;;;;;;;4.13;2.90;;;6.00;98.30;;;;;;5064976;23;20977;-82
2021/05/05 07:54:14;;;;;;;4.97;2.90;;;6.00;98.30;;;;;;5063989;23;20479;-82
2021/05/05 07:56:15;;;;;;;3.63;3.27;;;6.00;98.30;;;;;;5065079;23;20841;-82
2021/05/05 07:58:16;;;;;;;14.80;3.73;;;6.00;98.30;;;;;;5071800;23;20448;-83
2021/05/05 08:00:19;;;;;;;4.30;3.07;;;6.10;98.30;;;;;;5064284;23;20471;-83
2021/05/05 08:02:21;;;;;;;4.90;2.90;;;6.10;98.30;;;;;;5064930;23;20461;-83
2021/05/05 08:04:25;;;;;;;5.07;3.00;;;6.10;98.30;;;;;;5064995;23;20460;-83
2021/05/05 08:06:28;;;;;;;6.73;2.70;;;6.10;98.30;;;;;;5066249;23;20888;-83
2021/05/05 08:08:30;;;;;;;4.67;3.20;;;6.20;98.30;;;;;;5073585;23;20471;-83
2021/05/05 08:10:33;;;;;;;5.50;3.13;;;6.20;98.30;;;;;;5073003;23;20959;-82
2021/05/05 08:12:35;;;;;;;5.30;3.47;;;6.20;98.30;;;;;;5074905;23;21208;-82
2021/05/05 08:14:37;;;;;;;8.20;2.73;;;6.30;98.30;;;;;;5075364;23;20500;-83
2021/05/05 08:16:39;;;;;;;7.00;3.37;;;6.40;98.30;;;;;;5074106;23;20860;-83
2021/05/05 08:18:41;;;;;;;4.43;3.37;;;6.40;98.30;;;;;;5073150;23;20486;-83
2021/05/05 08:20:43;;;;;;;4.57;3.63;;;6.40;98.30;;;;;;5065794;23;20487;-82
2021/05/05 08:22:45;;;;;;;11.63;3.77;;;6.40;98.30;;;;;;5066094;23;20435;-83
2021/05/05 08:24:48;;;;;;;4.57;3.37;;;6.40;98.30;;;;;;5066298;23;20459;-82
2021/05/05 08:26:50;;;;;;;6.20;2.90;;;6.40;98.30;;;;;;5075460;23;20447;-82
2021/05/05 08:28:52;;;;;;;5.70;3.37;;;6.40;98.30;;;;;;5066203;23;21013;-83
2021/05/05 08:30:54;;;;;;;5.10;3.00;;;6.40;98.30;;;;;;5069962;23;20964;-83
2021/05/05 08:32:57;;;;;;;7.60;3.40;;;6.40;98.30;;;;;;5071379;23;20457;-84
2021/05/05 08:34:59;;;;;;;9.63;3.80;;;6.40;98.30;;;;;;5054395;23;20462;-83
2021/05/05 08:37:00;;;;;;;4.00;3.30;;;6.40;98.30;;;;;;5075890;23;20457;-83
2021/05/05 08:39:04;;;;;;;4.17;2.83;;;6.40;98.30;;;;;;5076754;23;21471;-82
2021/05/05 08:41:06;;;;;;;7.13;3.80;;;6.40;98.30;;;;;;5067253;23;20758;-83
2021/05/05 08:43:09;;;;;;;7.97;4.53;;;6.40;98.30;;;;;;5069125;23;20454;-83
2021/05/05 08:45:15;;;;;;;5.93;3.00;;;6.40;98.30;;;;;;5070573;23;20457;-84
2021/05/05 08:47:18;;;;;;;8.73;3.50;;;6.40;98.30;;;;;;5055008;23;20926;-83
2021/05/05 08:49:21;;;;;;;4.80;3.40;;;6.40;98.30;;;;;;5073023;23;20566;-84
2021/05/05 08:51:23;;;;;;;7.70;3.27;;;6.40;98.30;;;;;;5066384;23;20809;-83
2021/05/05 08:53:25;;;;;;;7.13;3.30;;;6.40;98.30;;;;;;5066041;23;20470;-83
2021/05/05 08:55:29;;;;;;;5.70;3.57;;;6.40;98.30;;;;;;5074386;23;20490;-83
2021/05/05 08:57:31;;;;;;;8.83;3.53;;;6.40;98.30;;;;;;5067251;23;20985;-83
2021/05/05 08:59:34;;;;;;;7.80;3.40;;;6.50;98.30;;;;;;5065397;23;20464;-82
2021/05/05 09:01:37;;;;;;;9.97;3.57;;;6.50;98.30;;;;;;5073975;23;20481;-83
2021/05/05 09:03:40;;;;;;;6.47;4.03;;;6.50;98.30;;;;;;5073171;23;20454;-83
2021/05/05 09:05:52;;;;;;;5.67;3.30;;;6.50;98.30;;;;;;5065392;23;20465;-84
2021/05/05 09:08:09;;;;;;;7.20;3.70;;;6.50;98.30;;;;;;5071805;23;20452;-83
2021/05/05 09:10:13;;;;;;;9.40;3.87;;;6.50;98.30;;;;;;5074415;23;20481;-82
2021/05/05 09:12:21;;;;;;;5.83;3.00;;;6.50;98.30;;;;;;5066857;23;20462;-83
2021/05/05 09:14:27;;;;;;;7.70;3.03;;;6.50;98.30;;;;;;5074152;23;20467;-82
2021/05/05 09:17:16;;;;;;;5.43;3.10;;;6.50;98.30;;;;;;5072878;23;20462;-83
2021/05/05 09:19:19;;;;;;;9.60;4.27;;;6.50;98.30;;;;;;5074231;23;20459;-83
2021/05/05 09:21:32;;;;;;;6.37;3.50;;;6.50;98.30;;;;;;5066258;23;21061;-84
2021/05/05 09:23:34;;;;;;;6.80;3.37;;;6.50;98.30;;;;;;5066033;23;20458;-83
2021/05/05 09:25:49;;;;;;;4.27;3.10;;;6.60;98.30;;;;;;5067477;23;20494;-85
2021/05/05 09:28:14;;;;;;;5.53;3.23;;;6.70;98.30;;;;;;5075737;23;20527;-84
2021/05/05 09:30:21;;;;;;;7.40;3.87;;;6.60;98.30;;;;;;5068377;23;20545;-83
2021/05/05 09:32:23;;;;;;;3.10;2.40;;;6.60;98.30;;;;;;5075951;23;20447;-82
2021/05/05 09:34:27;;;;;;;5.87;2.70;;;6.60;98.30;;;;;;5075359;23;20462;-82
2021/05/05 09:36:29;;;;;;;4.73;3.70;;;6.70;98.30;;;;;;5070575;23;21019;-82
2021/05/05 09:38:42;;;;;;;6.43;2.93;;;6.70;98.30;;;;;;5067023;23;20466;-84
2021/05/05 09:40:55;;;;;;;3.30;2.57;;;6.70;98.30;;;;;;5075478;23;20459;-84
2021/05/05 09:42:57;;;;;;;3.30;2.20;;;6.70;98.30;;;;;;5072485;23;20543;-82
2021/05/05 09:45:01;;;;;;;3.97;2.63;;;6.80;98.30;;;;;;5080801;23;20804;-84
2021/05/05 09:47:03;;;;;;;4.37;3.30;;;6.80;98.30;;;;;;5071290;23;20525;-84
2021/05/05 09:49:19;;;;;;;6.43;3.20;;;6.90;98.30;;;;;;5070134;23;20462;-85
2021/05/05 09:51:25;;;;;;;7.00;2.90;;;6.90;98.30;;;;;;5078125;23;20845;-85
2021/05/05 09:53:28;;;;;;;5.80;3.10;;;7.00;98.30;;;;;;5079316;23;20456;-85
2021/05/05 09:55:33;;;;;;;5.00;3.50;;;6.90;98.30;;;;;;5079198;23;20448;-85
2021/05/05 09:57:39;;;;;;;3.07;2.77;;;6.80;98.30;;;;;;5081487;23;20456;-84
2021/05/05 10:00:04;;;;;;;4.20;3.20;;;6.80;98.30;;;;;;5086624;23;20494;-84
2021/05/05 10:02:09;;;;;;;5.50;2.80;;;6.80;98.30;;;;;;5079961;23;20452;-84
2021/05/05 10:05:02;;;;;;;3.80;2.60;;;6.80;98.30;;;;;;5082747;23;20444;-85
2021/05/05 10:10:45;;;;;;;6.93;2.80;;;6.90;98.30;;;;;;4929846;23;20926;-84
2021/05/05 10:13:08;;;;;;;5.67;3.00;;;7.00;98.30;;;;;;4988080;23;20487;-84
2021/05/05 10:15:16;;;;;;;5.27;3.10;;;7.00;98.30;;;;;;5028882;23;20508;-84
2021/05/05 10:17:32;;;;;;;7.70;3.33;;;7.00;98.30;;;;;;5074295;23;20699;-84
2021/05/05 10:19:43;;;;;;;6.30;4.30;;;7.10;98.30;;;;;;5073836;23;20446;-83
2021/05/05 10:22:15;;;;;;;2.90;2.53;;;7.30;98.30;;;;;;5072198;23;20452;-84
2021/05/05 10:24:49;;;;;;;6.20;3.57;;;7.40;98.30;;;;;;5059945;23;20444;-84
2021/05/05 10:27:19;;;;;;;6.47;3.00;;;7.40;98.30;;;;;;5074109;23;20447;-83
2021/05/05 10:29:35;;;;;;;4.43;2.80;;;7.40;98.30;;;;;;5075172;23;20452;-83
2021/05/05 10:34:33;;;;;;;4.50;2.53;;;7.30;98.30;;;;;;5061755;23;20509;-84
2021/05/05 10:37:03;;;;;;;3.13;2.63;;;7.40;98.30;;;;;;5079386;23;21327;-84
2021/05/05 10:39:33;;;;;;;6.23;2.70;;;7.40;98.30;;;;;;5078182;23;20459;-84
2021/05/05 10:42:11;;;;;;;9.40;3.60;;;7.50;98.30;;;;;;5077141;23;20460;-84
2021/05/05 10:44:34;;;;;;;4.73;2.80;;;7.60;98.30;;;;;;5079751;23;20788;-85
2021/05/05 10:46:42;;;;;;;3.97;2.43;;;7.80;98.30;;;;;;5076921;23;20492;-83
2021/05/05 10:49:18;;;;;;;4.70;2.60;;;7.80;98.30;;;;;;5075481;23;20467;-84
2021/05/05 10:51:20;;;;;;;3.23;2.17;;;7.80;98.30;;;;;;5072412;23;20447;-83
2021/05/05 10:53:29;;;;;;;2.97;1.83;;;7.80;98.30;;;;;;5073248;23;20430;-83
2021/05/05 10:55:53;;;;;;;2.10;1.90;;;7.70;98.30;;;;;;5072865;23;20462;-83
2021/05/05 10:58:39;;;;;;;2.37;2.10;;;7.60;98.30;;;;;;5067946;23;20499;-82
2021/05/05 11:01:11;;;;;;;7.53;2.70;;;7.50;98.30;;;;;;5064395;23;20463;-83
2021/05/05 11:04:13;;;;;;;2.40;2.20;;;7.50;98.30;;;;;;5071731;23;20506;-83
2021/05/05 11:06:47;;;;;;;3.33;2.37;;;7.60;98.30;;;;;;5005181;23;20469;-84
2021/05/05 11:08:52;;;;;;;5.20;3.00;;;7.70;98.30;;;;;;5071183;23;20434;-84
2021/05/05 11:10:57;;;;;;;3.20;2.90;;;7.70;98.30;;;;;;5072054;23;20471;-83
2021/05/05 11:12:59;;;;;;;5.17;2.37;;;7.60;98.30;;;;;;5072640;23;20447;-83
2021/05/05 11:15:02;;;;;;;3.93;2.90;;;7.60;98.30;;;;;;5072116;23;21275;-84
2021/05/05 11:17:06;;;;;;;7.33;2.90;;;7.50;98.30;;;;;;5072266;23;20562;-84
2021/05/05 11:19:47;;;;;;;3.90;2.80;;;7.50;98.30;;;;;;5072469;23;20701;-85
2021/05/05 11:21:52;;;;;;;4.43;3.00;;;7.60;98.30;;;;;;5072853;23;20934;-85
2021/05/05 11:23:54;;;;;;;5.10;2.80;;;7.70;98.30;;;;;;5073937;23;20465;-85